Time;durP1;ratioP1;P1;durP2;ratioP2;P2;SDS_P1;SDS_P2;PMS_P1;PMS_P2;Temp;Humidity;BMP_temperature;BMP_pressure;BME280_temperature;BME280_humidity;BME280_pressure;Samples;Min_cycle;Max_cycle;Signal;HPM_P1;HPM_P2
2023/12/16 00:00:43;;;;;;;24.90;6.72;;;4.50;99.90;;;;;;4843861;29;21484;-78
2023/12/16 00:03:10;;;;;;;15.15;6.93;;;4.50;99.90;;;;;;4840836;29;20116;-78
2023/12/16 00:05:36;;;;;;;19.65;6.50;;;4.40;99.90;;;;;;4842429;29;20053;-78
2023/12/16 00:08:02;;;;;;;17.73;6.68;;;4.40;99.90;;;;;;4840705;29;20078;-78
2023/12/16 00:10:27;;;;;;;15.63;6.25;;;4.40;99.90;;;;;;4840695;29;20038;-78
2023/12/16 00:12:53;;;;;;;23.83;7.35;;;4.40;99.90;;;;;;4845263;29;20129;-78
2023/12/16 00:15:19;;;;;;;24.50;7.47;;;4.30;99.90;;;;;;4842345;29;20483;-78
2023/12/16 00:17:44;;;;;;;17.40;7.78;;;4.30;99.90;;;;;;4840652;29;20610;-78
2023/12/16 00:20:10;;;;;;;17.77;7.07;;;4.30;99.90;;;;;;4840823;29;20375;-79
2023/12/16 00:22:39;;;;;;;16.58;6.63;;;4.30;99.90;;;;;;4843887;29;20050;-79
2023/12/16 00:25:07;;;;;;;17.08;6.35;;;4.40;99.90;;;;;;4844671;29;20026;-79
2023/12/16 00:27:33;;;;;;;20.02;6.45;;;4.50;99.90;;;;;;4840215;29;20033;-79
2023/12/16 00:29:58;;;;;;;19.42;6.00;;;4.50;99.90;;;;;;4837357;29;20037;-80
2023/12/16 00:32:24;;;;;;;15.93;6.30;;;4.40;99.90;;;;;;4845597;29;20521;-79
2023/12/16 00:34:50;;;;;;;17.70;5.43;;;4.40;99.90;;;;;;4841173;29;20451;-77
2023/12/16 00:37:15;;;;;;;18.45;5.72;;;4.30;99.90;;;;;;4842548;29;20133;-78
2023/12/16 00:39:41;;;;;;;16.65;6.47;;;4.30;99.90;;;;;;4836675;29;20049;-78
2023/12/16 00:42:07;;;;;;;23.38;7.10;;;4.30;99.90;;;;;;4838816;29;20022;-78
2023/12/16 00:44:33;;;;;;;15.98;6.00;;;4.40;99.90;;;;;;4843492;29;20181;-79
2023/12/16 00:47:00;;;;;;;15.45;5.47;;;4.50;99.90;;;;;;4845182;29;20034;-79
2023/12/16 00:49:25;;;;;;;18.58;5.13;;;4.60;99.90;;;;;;4847336;29;20056;-78
2023/12/16 00:51:51;;;;;;;14.73;5.20;;;4.60;99.90;;;;;;4846315;29;20026;-78
2023/12/16 00:54:17;;;;;;;19.33;4.88;;;4.70;99.90;;;;;;4847339;29;20048;-79
2023/12/16 00:56:42;;;;;;;20.48;5.78;;;4.70;99.90;;;;;;4844336;29;20284;-79
2023/12/16 00:59:08;;;;;;;17.30;5.00;;;4.80;99.90;;;;;;4844869;29;20099;-78
2023/12/16 01:01:33;;;;;;;18.42;4.70;;;4.80;99.90;;;;;;4842317;29;20038;-79
2023/12/16 01:03:59;;;;;;;17.17;4.80;;;4.80;99.90;;;;;;4843077;29;20414;-78
2023/12/16 01:06:24;;;;;;;15.88;6.38;;;4.90;99.90;;;;;;4844801;29;20100;-78
2023/12/16 01:08:50;;;;;;;14.90;4.97;;;4.90;99.90;;;;;;4845019;29;20033;-79
2023/12/16 01:11:16;;;;;;;15.15;5.28;;;4.80;99.90;;;;;;4841529;29;20064;-79
2023/12/16 01:13:41;;;;;;;17.17;5.22;;;4.90;99.90;;;;;;4847096;29;20038;-78
2023/12/16 01:16:07;;;;;;;11.90;4.68;;;4.90;99.90;;;;;;4846720;29;20134;-78
2023/12/16 01:18:33;;;;;;;15.15;5.45;;;5.00;99.90;;;;;;4850956;29;20105;-78
2023/12/16 01:21:02;;;;;;;13.18;4.60;;;5.00;99.90;;;;;;4847306;29;20117;-78
2023/12/16 01:23:28;;;;;;;19.75;4.78;;;5.10;99.90;;;;;;4846705;29;20037;-78
2023/12/16 01:25:53;;;;;;;17.55;5.00;;;5.30;99.90;;;;;;4842076;29;20063;-78
2023/12/16 01:28:19;;;;;;;15.70;4.80;;;5.40;99.90;;;;;;4840853;29;20025;-79
2023/12/16 01:30:44;;;;;;;11.85;3.90;;;5.50;99.90;;;;;;4837026;29;20663;-79
2023/12/16 01:33:11;;;;;;;13.95;3.78;;;5.60;99.90;;;;;;4844806;29;20125;-78
2023/12/16 01:35:37;;;;;;;17.80;6.25;;;5.70;99.90;;;;;;4832082;29;20123;-79
2023/12/16 01:38:03;;;;;;;15.65;4.43;;;5.70;99.90;;;;;;4836891;29;20514;-79
2023/12/16 01:40:29;;;;;;;14.13;4.45;;;5.80;99.90;;;;;;4847742;29;20042;-80
2023/12/16 01:42:55;;;;;;;16.20;4.30;;;6.00;99.90;;;;;;4839995;29;20039;-78
2023/12/16 01:45:21;;;;;;;17.30;5.00;;;6.10;99.90;;;;;;4846185;29;20530;-77
2023/12/16 01:47:47;;;;;;;14.30;4.00;;;6.20;99.90;;;;;;4844295;29;20034;-77
2023/12/16 01:50:13;;;;;;;12.48;4.25;;;6.30;99.90;;;;;;4846991;29;20603;-78
2023/12/16 01:52:41;;;;;;;17.13;4.20;;;6.40;99.90;;;;;;4839577;29;20895;-78
2023/12/16 01:55:09;;;;;;;13.50;3.97;;;6.40;99.90;;;;;;4844091;29;20057;-78
2023/12/16 01:57:36;;;;;;;15.63;4.55;;;6.50;99.90;;;;;;4850066;29;20878;-77
2023/12/16 02:00:03;;;;;;;13.32;3.60;;;6.60;99.90;;;;;;4851156;29;20049;-78
2023/12/16 02:02:30;;;;;;;11.98;3.33;;;6.70;99.90;;;;;;4846832;29;21905;-80
2023/12/16 02:04:55;;;;;;;13.18;3.60;;;6.80;99.90;;;;;;4844034;29;20048;-80
2023/12/16 02:07:21;;;;;;;13.43;3.25;;;7.00;99.90;;;;;;4844085;29;20026;-79
2023/12/16 02:09:48;;;;;;;9.05;3.55;;;7.10;99.90;;;;;;4845086;29;20133;-79
2023/12/16 02:12:13;;;;;;;11.43;3.50;;;7.30;99.90;;;;;;4841294;29;20516;-80
2023/12/16 02:14:39;;;;;;;15.00;3.45;;;7.40;99.90;;;;;;4849061;29;20047;-80
2023/12/16 02:17:05;;;;;;;11.23;3.13;;;7.50;99.90;;;;;;4846773;29;20025;-77
2023/12/16 02:19:33;;;;;;;10.20;3.08;;;7.60;99.90;;;;;;4841024;29;20501;-79
2023/12/16 02:21:59;;;;;;;11.50;2.88;;;7.70;99.90;;;;;;4838548;29;20160;-80
2023/12/16 02:24:26;;;;;;;10.80;2.88;;;7.80;99.90;;;;;;4839845;29;20047;-80
2023/12/16 02:26:52;;;;;;;12.77;3.90;;;7.80;99.90;;;;;;4842205;29;20124;-80
2023/12/16 02:29:18;;;;;;;15.60;3.17;;;7.80;99.90;;;;;;4841444;29;20117;-80
2023/12/16 02:31:43;;;;;;;11.55;3.13;;;7.90;99.90;;;;;;4842723;29;20029;-79
2023/12/16 02:34:09;;;;;;;13.27;3.00;;;7.90;99.90;;;;;;4845319;29;20109;-80
2023/12/16 02:36:35;;;;;;;8.70;2.85;;;8.00;99.90;;;;;;4841004;29;20135;-79
2023/12/16 02:39:00;;;;;;;15.40;2.70;;;8.00;99.90;;;;;;4848444;29;20145;-79
2023/12/16 02:41:26;;;;;;;8.18;2.75;;;8.10;99.90;;;;;;4848972;29;20065;-78
2023/12/16 02:43:51;;;;;;;9.15;2.47;;;8.10;99.90;;;;;;4845285;29;20044;-79
2023/12/16 02:46:17;;;;;;;9.95;3.28;;;8.20;99.90;;;;;;4848300;29;20038;-78
2023/12/16 02:48:43;;;;;;;8.50;2.80;;;8.20;99.90;;;;;;4845733;29;20030;-79
2023/12/16 02:51:17;;;;;;;7.18;2.25;;;8.20;99.90;;;;;;4844594;29;21801;-79
2023/12/16 02:53:43;;;;;;;8.00;2.03;;;8.30;99.90;;;;;;4846584;29;20045;-79
2023/12/16 02:56:08;;;;;;;19.13;3.22;;;8.30;99.90;;;;;;4841726;29;20049;-79
2023/12/16 02:58:34;;;;;;;9.45;2.70;;;8.30;99.90;;;;;;4845172;29;20095;-79
2023/12/16 03:01:00;;;;;;;10.48;2.33;;;8.30;99.90;;;;;;4837529;29;20182;-80
2023/12/16 03:03:25;;;;;;;11.82;3.05;;;8.30;99.90;;;;;;4838578;29;20513;-79
2023/12/16 03:05:51;;;;;;;9.13;2.80;;;8.30;99.90;;;;;;4834698;29;20057;-79
2023/12/16 03:08:16;;;;;;;9.73;2.90;;;8.30;99.90;;;;;;4841183;29;20124;-79
2023/12/16 03:10:42;;;;;;;9.18;2.60;;;8.30;99.90;;;;;;4844562;29;20517;-79
2023/12/16 03:13:08;;;;;;;11.95;2.63;;;8.30;99.90;;;;;;4844502;29;20673;-80
2023/12/16 03:15:33;;;;;;;10.93;2.85;;;8.30;99.90;;;;;;4850021;29;20120;-79
2023/12/16 03:17:59;;;;;;;13.10;3.17;;;8.30;99.90;;;;;;4840842;29;20098;-80
2023/12/16 03:20:25;;;;;;;10.00;3.25;;;8.30;99.90;;;;;;4841624;29;20102;-79
2023/12/16 03:22:52;;;;;;;12.13;3.10;;;8.30;99.90;;;;;;4840103;29;20525;-79
2023/12/16 03:25:18;;;;;;;13.15;3.10;;;8.30;99.90;;;;;;4840377;29;20558;-79
2023/12/16 03:27:43;;;;;;;8.15;2.53;;;8.30;99.90;;;;;;4838785;29;20037;-79
2023/12/16 03:30:09;;;;;;;8.02;2.75;;;8.30;99.90;;;;;;4841568;29;20470;-79
2023/12/16 03:32:35;;;;;;;6.75;2.30;;;8.40;99.90;;;;;;4836624;29;20125;-79
2023/12/16 03:35:02;;;;;;;8.38;2.63;;;8.50;99.90;;;;;;4837961;29;20037;-79
2023/12/16 03:37:27;;;;;;;8.95;2.53;;;8.50;99.90;;;;;;4840464;29;20052;-79
2023/12/16 03:39:53;;;;;;;9.35;2.67;;;8.60;99.90;;;;;;4842918;29;20041;-79
2023/12/16 03:42:19;;;;;;;7.80;2.97;;;8.50;99.90;;;;;;4841512;29;20052;-79
2023/12/16 03:44:48;;;;;;;13.38;3.03;;;8.60;99.90;;;;;;4841949;29;20037;-79
2023/12/16 03:47:14;;;;;;;11.98;3.40;;;8.60;99.90;;;;;;4842188;29;20433;-79
2023/12/16 03:49:40;;;;;;;10.30;3.53;;;8.70;99.90;;;;;;4844384;29;20048;-79
2023/12/16 03:52:06;;;;;;;11.02;3.47;;;8.60;99.90;;;;;;4846585;29;20035;-79
2023/12/16 03:54:32;;;;;;;14.43;3.70;;;8.70;99.90;;;;;;4845124;29;20225;-79
2023/12/16 03:56:57;;;;;;;10.65;3.63;;;8.70;99.90;;;;;;4838599;29;20432;-78
2023/12/16 03:59:23;;;;;;;9.30;3.80;;;8.70;99.90;;;;;;4841017;29;20048;-78
2023/12/16 04:01:49;;;;;;;11.00;3.70;;;8.70;99.90;;;;;;4836416;29;20572;-79
2023/12/16 04:04:14;;;;;;;10.60;3.47;;;8.70;99.90;;;;;;4835673;29;20033;-77
2023/12/16 04:07:33;;;;;;;10.60;3.78;;;8.80;99.90;;;;;;4833307;29;20278;-77
2023/12/16 04:10:00;;;;;;;10.20;3.40;;;8.80;99.90;;;;;;4817904;29;20037;-78
2023/12/16 04:12:25;;;;;;;11.70;3.60;;;8.80;99.90;;;;;;4823487;29;20035;-79
2023/12/16 04:14:51;;;;;;;10.73;4.00;;;8.90;99.90;;;;;;4830146;29;20053;-78
2023/12/16 04:17:16;;;;;;;9.93;3.97;;;8.90;99.90;;;;;;4837518;29;20526;-78
2023/12/16 04:19:50;;;;;;;16.70;3.95;;;8.90;99.90;;;;;;4829722;29;20177;-78
2023/12/16 04:22:15;;;;;;;9.48;5.40;;;8.90;99.90;;;;;;4831566;29;20426;-77
2023/12/16 04:24:41;;;;;;;9.50;4.72;;;9.00;99.90;;;;;;4829574;29;20491;-77
2023/12/16 04:27:06;;;;;;;11.77;4.65;;;9.00;99.90;;;;;;4830910;29;20437;-77
2023/12/16 04:29:32;;;;;;;15.05;4.70;;;9.00;99.90;;;;;;4832599;29;20045;-77
2023/12/16 04:31:57;;;;;;;14.32;4.32;;;9.00;99.90;;;;;;4821270;29;20579;-78
2023/12/16 04:34:23;;;;;;;10.75;3.97;;;9.00;99.90;;;;;;4817807;29;20034;-78
2023/12/16 04:36:49;;;;;;;12.15;3.90;;;9.10;99.90;;;;;;4822050;29;20045;-77
2023/12/16 04:39:14;;;;;;;8.68;4.80;;;9.00;99.90;;;;;;4818957;29;20122;-77
2023/12/16 04:41:40;;;;;;;12.15;4.40;;;9.10;99.90;;;;;;4822577;29;20046;-77
2023/12/16 04:44:05;;;;;;;9.30;4.18;;;9.10;99.90;;;;;;4818165;29;20045;-77
2023/12/16 04:46:31;;;;;;;12.95;5.03;;;9.10;99.90;;;;;;4824832;29;20554;-77
2023/12/16 04:48:56;;;;;;;11.23;4.30;;;9.10;99.90;;;;;;4825174;29;20330;-77
2023/12/16 04:51:22;;;;;;;8.32;3.63;;;9.10;99.90;;;;;;4821583;29;20482;-77
2023/12/16 04:53:48;;;;;;;14.98;4.32;;;9.20;99.90;;;;;;4822998;29;20050;-77
2023/12/16 04:56:14;;;;;;;10.73;3.70;;;9.10;99.90;;;;;;4822909;29;20521;-77
2023/12/16 04:58:39;;;;;;;10.75;4.25;;;9.20;99.90;;;;;;4826881;29;20064;-77
2023/12/16 05:01:05;;;;;;;12.25;4.38;;;9.20;99.90;;;;;;4820529;29;20043;-77
2023/12/16 05:03:32;;;;;;;12.52;4.00;;;9.10;99.90;;;;;;4817981;29;20289;-78
2023/12/16 05:05:58;;;;;;;10.02;5.03;;;9.10;99.90;;;;;;4818341;29;20034;-77
2023/12/16 05:08:23;;;;;;;11.43;4.78;;;9.10;99.90;;;;;;4836256;29;20052;-77
2023/12/16 05:10:49;;;;;;;12.05;4.80;;;9.20;99.90;;;;;;4846506;29;20130;-78
2023/12/16 05:13:15;;;;;;;10.85;5.20;;;9.20;99.90;;;;;;4852901;29;20032;-78
2023/12/16 05:15:41;;;;;;;9.15;4.53;;;9.20;99.90;;;;;;4853153;29;20149;-77
2023/12/16 05:18:07;;;;;;;11.93;4.35;;;9.20;99.90;;;;;;4854648;29;20040;-78
2023/12/16 05:20:34;;;;;;;13.70;4.93;;;9.30;99.90;;;;;;4841464;29;20406;-80
2023/12/16 05:22:59;;;;;;;8.52;4.22;;;9.30;99.90;;;;;;4842406;29;20060;-79
2023/12/16 05:25:27;;;;;;;9.82;4.22;;;9.30;99.90;;;;;;4848894;29;20061;-78
2023/12/16 05:27:53;;;;;;;12.45;4.50;;;9.30;99.90;;;;;;4839660;29;20526;-77
2023/12/16 05:30:19;;;;;;;12.10;4.75;;;9.30;99.90;;;;;;4842177;29;20045;-78
2023/12/16 05:32:44;;;;;;;14.43;5.05;;;9.30;99.90;;;;;;4842568;29;20045;-77
2023/12/16 05:35:10;;;;;;;18.08;6.28;;;9.30;99.90;;;;;;4841694;29;20145;-78
2023/12/16 05:37:36;;;;;;;13.38;5.85;;;9.30;99.90;;;;;;4851199;29;20037;-78
2023/12/16 05:40:02;;;;;;;15.35;5.80;;;9.30;99.90;;;;;;4842204;29;20032;-78
2023/12/16 05:42:28;;;;;;;13.23;4.47;;;9.30;99.90;;;;;;4843747;29;20034;-78
2023/12/16 05:44:54;;;;;;;9.90;4.70;;;9.30;99.90;;;;;;4850776;29;20037;-77
2023/12/16 05:47:19;;;;;;;11.85;4.57;;;9.30;99.90;;;;;;4846774;29;20036;-79
2023/12/16 05:49:45;;;;;;;13.50;5.40;;;9.30;99.90;;;;;;4848453;29;20029;-80
2023/12/16 05:52:11;;;;;;;17.67;5.55;;;9.40;99.90;;;;;;4848484;29;20332;-80
2023/12/16 05:54:37;;;;;;;11.82;5.10;;;9.40;99.90;;;;;;4839787;29;20455;-79
2023/12/16 05:57:02;;;;;;;11.40;5.32;;;9.40;99.90;;;;;;4844877;29;20549;-79
2023/12/16 05:59:28;;;;;;;7.90;4.40;;;9.40;99.90;;;;;;4842606;29;20037;-78
2023/12/16 06:01:55;;;;;;;10.82;4.50;;;9.40;99.90;;;;;;4842872;29;20034;-78
2023/12/16 06:04:20;;;;;;;12.07;4.95;;;9.50;99.90;;;;;;4846081;29;20061;-78
2023/12/16 06:06:46;;;;;;;9.00;4.60;;;9.50;99.90;;;;;;4844411;29;20598;-78
2023/12/16 06:09:12;;;;;;;11.32;4.95;;;9.50;99.90;;;;;;4850659;29;20391;-79
2023/12/16 06:11:38;;;;;;;7.70;4.20;;;9.60;99.90;;;;;;4841227;29;20046;-79
2023/12/16 06:14:03;;;;;;;8.20;4.18;;;9.60;99.90;;;;;;4843006;29;20078;-79
2023/12/16 06:16:29;;;;;;;6.65;3.17;;;9.50;99.90;;;;;;4845471;29;20041;-80
2023/12/16 06:18:55;;;;;;;5.85;3.33;;;9.60;99.90;;;;;;4844539;29;20053;-78
2023/12/16 06:21:20;;;;;;;8.05;3.80;;;9.60;99.90;;;;;;4843511;29;20591;-78
2023/12/16 06:23:46;;;;;;;8.93;4.10;;;9.60;99.90;;;;;;4845264;29;20442;-78
2023/12/16 06:26:11;;;;;;;12.88;4.32;;;9.70;99.90;;;;;;4849533;29;20033;-78
2023/12/16 06:28:37;;;;;;;9.00;4.10;;;9.70;99.90;;;;;;4842555;29;20066;-77
2023/12/16 06:31:03;;;;;;;10.45;4.75;;;9.70;99.90;;;;;;4843087;29;20436;-80
2023/12/16 06:33:28;;;;;;;13.20;5.57;;;9.70;99.90;;;;;;4844263;29;20045;-79
2023/12/16 06:35:54;;;;;;;11.68;5.00;;;9.70;99.90;;;;;;4842623;29;20431;-78
2023/12/16 06:38:20;;;;;;;17.02;5.47;;;9.70;99.90;;;;;;4848486;29;20041;-78
2023/12/16 06:40:46;;;;;;;14.18;5.50;;;9.70;99.90;;;;;;4842857;29;20033;-79
2023/12/16 06:43:11;;;;;;;14.10;5.80;;;9.70;99.90;;;;;;4841186;29;20029;-79
2023/12/16 06:45:38;;;;;;;12.60;5.55;;;9.70;99.90;;;;;;4841021;29;20542;-79
2023/12/16 06:48:04;;;;;;;13.20;5.75;;;9.70;99.90;;;;;;4838019;29;20048;-79
2023/12/16 06:50:30;;;;;;;13.27;5.32;;;9.70;99.90;;;;;;4837887;29;20047;-78
2023/12/16 06:52:56;;;;;;;10.07;5.68;;;9.80;99.90;;;;;;4852505;29;20501;-79
2023/12/16 06:55:21;;;;;;;14.27;6.10;;;9.80;99.90;;;;;;4849312;29;20044;-79
2023/12/16 06:57:47;;;;;;;14.95;5.85;;;9.80;99.90;;;;;;4850002;29;20116;-79
2023/12/16 07:00:13;;;;;;;13.95;6.28;;;9.80;99.90;;;;;;4840737;29;20046;-78
2023/12/16 07:02:41;;;;;;;16.63;6.53;;;9.80;99.90;;;;;;4838819;29;21249;-78
2023/12/16 07:05:09;;;;;;;14.25;6.57;;;9.80;99.90;;;;;;4844324;29;20044;-78
2023/12/16 07:07:35;;;;;;;18.00;6.60;;;9.80;99.90;;;;;;4847289;29;20224;-78
2023/12/16 07:10:01;;;;;;;12.55;6.10;;;9.80;99.90;;;;;;4843687;29;20519;-79
2023/12/16 07:12:27;;;;;;;17.73;6.53;;;9.80;99.90;;;;;;4837176;29;20033;-79
2023/12/16 07:14:52;;;;;;;13.02;5.15;;;9.80;99.90;;;;;;4844201;29;20037;-79
2023/12/16 07:17:19;;;;;;;17.50;5.93;;;9.80;99.90;;;;;;4845992;29;20545;-78
2023/12/16 07:19:44;;;;;;;10.07;4.68;;;9.90;99.90;;;;;;4848597;29;20109;-80
2023/12/16 07:22:10;;;;;;;13.80;4.85;;;9.90;99.90;;;;;;4840501;29;20154;-79
2023/12/16 07:24:37;;;;;;;10.55;4.75;;;9.90;99.90;;;;;;4841847;29;20029;-79
2023/12/16 07:27:03;;;;;;;9.77;4.75;;;9.90;99.90;;;;;;4838179;29;20030;-79
2023/12/16 07:29:32;;;;;;;10.20;4.63;;;9.90;99.90;;;;;;4841817;29;20033;-79
2023/12/16 07:31:58;;;;;;;11.63;4.93;;;9.90;99.90;;;;;;4847954;29;20058;-79
2023/12/16 07:34:23;;;;;;;12.10;4.75;;;9.90;99.90;;;;;;4839516;29;20037;-79
2023/12/16 07:36:49;;;;;;;12.80;5.47;;;10.00;99.90;;;;;;4845644;29;20084;-79
2023/12/16 07:39:15;;;;;;;12.88;4.38;;;10.00;99.90;;;;;;4844649;29;20046;-79
2023/12/16 07:41:40;;;;;;;10.63;4.93;;;10.00;99.90;;;;;;4842661;29;20453;-79
2023/12/16 07:44:06;;;;;;;12.20;4.65;;;10.00;99.90;;;;;;4840564;29;20030;-79
2023/12/16 07:46:32;;;;;;;16.30;4.95;;;10.10;99.90;;;;;;4845824;29;20141;-79
2023/12/16 07:48:57;;;;;;;11.25;4.95;;;10.10;99.90;;;;;;4845116;29;20034;-79
2023/12/16 07:51:25;;;;;;;10.02;4.47;;;10.10;99.90;;;;;;4839148;29;20554;-79
2023/12/16 07:53:51;;;;;;;13.10;5.18;;;10.10;99.90;;;;;;4841691;29;20406;-79
2023/12/16 07:56:22;;;;;;;11.70;5.28;;;10.20;99.90;;;;;;4841311;29;20045;-79
2023/12/16 07:58:48;;;;;;;13.85;6.15;;;10.20;99.90;;;;;;4841459;29;20531;-79
2023/12/16 08:01:14;;;;;;;17.55;6.43;;;10.20;99.90;;;;;;4838476;29;20036;-80
2023/12/16 08:03:40;;;;;;;10.60;5.18;;;10.20;99.90;;;;;;4838041;29;20433;-80
2023/12/16 08:06:07;;;;;;;11.63;5.90;;;10.20;99.90;;;;;;4840456;29;20038;-79
2023/12/16 08:08:33;;;;;;;12.70;5.70;;;10.30;99.90;;;;;;4840433;29;20046;-79
2023/12/16 08:10:58;;;;;;;12.60;5.70;;;10.20;99.90;;;;;;4846238;29;20037;-79
2023/12/16 08:13:25;;;;;;;13.48;4.93;;;10.20;99.90;;;;;;4847527;29;20291;-79
2023/12/16 08:15:50;;;;;;;13.68;5.60;;;10.20;99.90;;;;;;4846903;29;20061;-79
2023/12/16 08:18:16;;;;;;;12.40;4.47;;;10.20;99.90;;;;;;4839674;29;20502;-79
2023/12/16 08:20:42;;;;;;;9.85;4.82;;;10.20;99.90;;;;;;4837344;29;20167;-79
2023/12/16 08:23:08;;;;;;;8.50;4.57;;;10.20;99.90;;;;;;4839917;29;20668;-79
2023/12/16 08:25:35;;;;;;;14.68;4.50;;;10.30;99.90;;;;;;4839534;29;20655;-78
2023/12/16 08:28:01;;;;;;;11.20;4.63;;;10.20;99.90;;;;;;4840701;29;20069;-79
2023/12/16 08:30:27;;;;;;;8.90;4.35;;;10.30;99.90;;;;;;4838557;29;20037;-80
2023/12/16 08:32:53;;;;;;;10.80;4.68;;;10.30;99.90;;;;;;4840377;29;20042;-81
2023/12/16 08:35:19;;;;;;;8.43;3.80;;;10.20;99.90;;;;;;4841776;29;20068;-79
2023/12/16 08:37:44;;;;;;;8.10;4.03;;;10.30;99.90;;;;;;4843918;29;20432;-80
2023/12/16 08:40:11;;;;;;;8.82;4.25;;;10.30;99.90;;;;;;4839513;29;20057;-79
2023/12/16 08:42:37;;;;;;;10.50;4.68;;;10.40;99.90;;;;;;4842519;29;20140;-80
2023/12/16 08:45:03;;;;;;;12.50;4.78;;;10.40;99.90;;;;;;4840401;29;20271;-80
2023/12/16 08:47:29;;;;;;;8.70;3.92;;;10.40;99.90;;;;;;4836263;29;20372;-80
2023/12/16 08:49:55;;;;;;;8.65;4.45;;;10.40;99.90;;;;;;4844526;29;20105;-80
2023/12/16 08:52:20;;;;;;;12.80;5.30;;;10.40;99.90;;;;;;4845170;29;20046;-80
2023/12/16 08:54:46;;;;;;;11.90;5.70;;;10.40;99.90;;;;;;4842869;29;20538;-80
2023/12/16 08:57:12;;;;;;;10.65;4.97;;;10.40;99.90;;;;;;4839158;29;20041;-80
2023/12/16 08:59:38;;;;;;;10.98;6.05;;;10.40;99.90;;;;;;4843830;29;20048;-80
2023/12/16 09:02:05;;;;;;;13.40;6.30;;;10.40;99.90;;;;;;4838803;29;20394;-79
2023/12/16 09:04:31;;;;;;;12.48;6.07;;;10.40;99.90;;;;;;4841760;29;20479;-78
2023/12/16 09:06:56;;;;;;;10.70;5.55;;;10.40;99.90;;;;;;4840443;29;20526;-79
2023/12/16 09:09:22;;;;;;;12.32;6.43;;;10.40;99.90;;;;;;4842124;29;20054;-79
2023/12/16 09:11:48;;;;;;;7.93;4.70;;;10.40;99.90;;;;;;4852115;29;20053;-80
2023/12/16 09:14:14;;;;;;;10.60;4.65;;;10.40;99.90;;;;;;4847500;29;20041;-79
2023/12/16 09:16:40;;;;;;;8.85;4.57;;;10.40;99.90;;;;;;4846160;29;20557;-81
2023/12/16 09:19:07;;;;;;;7.57;3.80;;;10.40;99.90;;;;;;4840168;29;20038;-80
2023/12/16 09:21:33;;;;;;;8.88;4.38;;;10.40;99.90;;;;;;4840172;29;20089;-78
2023/12/16 09:23:59;;;;;;;7.25;4.20;;;10.40;99.90;;;;;;4842862;29;20044;-80
2023/12/16 09:26:25;;;;;;;9.73;5.75;;;10.40;99.90;;;;;;4850525;29;20037;-79
2023/12/16 09:28:51;;;;;;;9.15;5.72;;;10.40;99.90;;;;;;4842290;29;20406;-79
2023/12/16 09:31:17;;;;;;;9.07;5.30;;;10.40;99.90;;;;;;4848414;29;20049;-80
2023/12/16 09:33:42;;;;;;;14.20;6.72;;;10.40;99.90;;;;;;4845414;29;20033;-79
2023/12/16 09:36:16;;;;;;;10.18;5.78;;;10.40;99.90;;;;;;4846447;29;20040;-79
2023/12/16 09:38:42;;;;;;;12.45;6.93;;;10.40;99.90;;;;;;4845313;29;20025;-80
2023/12/16 09:41:25;;;;;;;10.50;6.15;;;10.40;99.90;;;;;;4846946;29;20040;-79
2023/12/16 09:43:52;;;;;;;13.52;6.32;;;10.40;99.90;;;;;;4842022;29;20032;-80
2023/12/16 09:46:20;;;;;;;11.18;6.53;;;10.50;99.90;;;;;;4847726;29;20141;-79
2023/12/16 09:48:46;;;;;;;10.18;5.25;;;10.50;99.90;;;;;;4845709;29;20037;-79
2023/12/16 09:51:11;;;;;;;8.77;5.63;;;10.50;99.90;;;;;;4839006;29;20042;-79
2023/12/16 09:53:39;;;;;;;11.07;5.38;;;10.50;99.90;;;;;;4843691;29;20041;-79
2023/12/16 09:56:05;;;;;;;10.23;6.03;;;10.60;99.90;;;;;;4848539;29;20072;-79
2023/12/16 09:58:33;;;;;;;11.52;5.82;;;10.60;99.90;;;;;;4845216;29;20060;-79
2023/12/16 10:01:01;;;;;;;8.95;5.20;;;10.60;99.90;;;;;;4840906;29;20144;-79
2023/12/16 10:03:27;;;;;;;8.05;5.32;;;10.70;99.90;;;;;;4841648;29;20034;-80
2023/12/16 10:05:53;;;;;;;8.98;5.03;;;10.70;99.90;;;;;;4844633;29;20022;-79
2023/12/16 10:08:19;;;;;;;6.43;3.45;;;10.70;99.90;;;;;;4845273;29;20068;-78
2023/12/16 10:10:44;;;;;;;6.07;3.75;;;10.60;99.90;;;;;;4844012;29;20041;-77
2023/12/16 10:13:10;;;;;;;8.77;5.20;;;10.70;99.90;;;;;;4840936;29;20694;-80
2023/12/16 10:15:37;;;;;;;3.92;2.75;;;10.70;99.90;;;;;;4842397;29;20402;-80
2023/12/16 10:18:03;;;;;;;3.13;2.55;;;10.80;99.90;;;;;;4844003;29;20085;-78
2023/12/16 10:20:30;;;;;;;4.85;3.00;;;10.80;99.90;;;;;;4848342;29;20033;-79
2023/12/16 10:22:59;;;;;;;4.57;2.38;;;10.80;99.90;;;;;;4843234;29;20033;-80
2023/12/16 10:25:25;;;;;;;3.53;2.25;;;10.80;99.90;;;;;;4851901;29;20148;-79
2023/12/16 10:27:59;;;;;;;2.50;2.15;;;10.90;99.90;;;;;;4849139;29;20092;-80
2023/12/16 10:30:25;;;;;;;2.88;2.10;;;10.90;99.90;;;;;;4841611;29;20049;-79
2023/12/16 10:32:51;;;;;;;3.15;2.35;;;10.90;99.90;;;;;;4840060;29;20026;-80
2023/12/16 10:35:17;;;;;;;3.83;2.40;;;10.90;99.90;;;;;;4847814;29;20038;-79
2023/12/16 10:37:49;;;;;;;3.63;2.00;;;11.00;99.90;;;;;;4841711;29;20053;-78
2023/12/16 10:40:15;;;;;;;2.83;1.50;;;11.00;99.90;;;;;;4840496;29;20275;-79
2023/12/16 10:42:41;;;;;;;2.17;1.65;;;11.10;99.90;;;;;;4847851;29;20097;-80
2023/12/16 10:45:07;;;;;;;2.30;1.60;;;11.20;99.90;;;;;;4845189;29;20412;-79
2023/12/16 10:47:34;;;;;;;2.13;1.75;;;11.20;99.90;;;;;;4842938;29;20033;-79
2023/12/16 10:50:02;;;;;;;2.60;1.85;;;11.20;99.90;;;;;;4838897;29;20614;-78
2023/12/16 10:52:35;;;;;;;3.42;1.90;;;11.10;99.90;;;;;;4843105;29;20692;-79
2023/12/16 10:55:02;;;;;;;2.13;1.90;;;11.10;99.90;;;;;;4841430;29;20049;-78
2023/12/16 10:57:43;;;;;;;19.60;12.93;;;11.10;99.90;;;;;;4841488;29;20041;-79
2023/12/16 11:00:14;;;;;;;4.18;1.95;;;11.20;99.90;;;;;;4843118;29;20073;-78
2023/12/16 11:02:54;;;;;;;2.35;1.85;;;11.20;99.90;;;;;;4836424;29;20038;-78
2023/12/16 11:05:28;;;;;;;2.53;1.70;;;11.20;99.90;;;;;;4837818;29;20149;-78
2023/12/16 11:07:57;;;;;;;2.05;1.77;;;11.20;99.90;;;;;;4837212;29;21856;-78
2023/12/16 11:10:23;;;;;;;3.15;2.08;;;11.20;99.90;;;;;;4835571;29;20142;-79
2023/12/16 11:12:50;;;;;;;3.47;2.50;;;11.20;99.90;;;;;;4837937;29;20057;-80
2023/12/16 11:15:16;;;;;;;3.05;2.30;;;11.10;99.90;;;;;;4843977;29;20056;-79
2023/12/16 11:17:57;;;;;;;3.00;2.10;;;11.10;99.90;;;;;;4837945;29;20728;-80
2023/12/16 11:20:33;;;;;;;4.10;2.40;;;11.10;99.90;;;;;;4837646;29;20090;-78
2023/12/16 11:22:59;;;;;;;3.80;2.75;;;11.20;99.90;;;;;;4847952;29;20064;-79
2023/12/16 11:25:26;;;;;;;3.35;2.95;;;11.20;99.90;;;;;;4849916;29;20037;-78
2023/12/16 11:27:55;;;;;;;4.80;3.90;;;11.30;99.90;;;;;;4835740;29;20343;-78
2023/12/16 11:30:21;;;;;;;7.95;4.15;;;11.30;99.90;;;;;;4841280;29;20399;-80
2023/12/16 11:32:55;;;;;;;7.78;5.60;;;11.20;99.90;;;;;;4843556;29;20037;-79
2023/12/16 11:35:45;;;;;;;11.18;6.95;;;11.20;99.90;;;;;;4839439;29;20287;-80
2023/12/16 11:38:41;;;;;;;8.52;6.32;;;11.20;99.90;;;;;;4837574;29;20131;-77
2023/12/16 11:41:07;;;;;;;8.38;5.97;;;11.20;99.90;;;;;;4845850;29;20150;-78
2023/12/16 11:43:53;;;;;;;6.88;5.07;;;11.30;99.90;;;;;;4839513;29;20045;-78
2023/12/16 11:46:39;;;;;;;9.20;6.10;;;11.30;99.90;;;;;;4839300;29;20037;-79
2023/12/16 11:49:10;;;;;;;7.47;5.22;;;11.30;99.90;;;;;;4839773;29;20116;-78
2023/12/16 11:51:38;;;;;;;8.43;5.20;;;11.40;99.90;;;;;;4842387;29;20061;-79
2023/12/16 11:54:05;;;;;;;8.25;5.50;;;11.50;99.90;;;;;;4841403;29;20037;-80
2023/12/16 11:56:31;;;;;;;6.18;4.32;;;11.50;99.90;;;;;;4846800;29;20038;-78
2023/12/16 11:58:58;;;;;;;7.40;5.13;;;11.50;99.90;;;;;;4841285;29;20109;-79
2023/12/16 12:01:26;;;;;;;8.57;5.57;;;11.40;99.90;;;;;;4837701;29;20483;-79
2023/12/16 12:03:52;;;;;;;7.85;5.55;;;11.50;99.90;;;;;;4837260;29;20398;-77
2023/12/16 12:06:18;;;;;;;9.88;5.43;;;11.40;99.90;;;;;;4838625;29;20439;-78
2023/12/16 12:08:46;;;;;;;9.90;5.85;;;11.50;99.90;;;;;;4842113;29;20042;-77
2023/12/16 12:11:12;;;;;;;9.02;6.72;;;11.50;99.90;;;;;;4838857;29;20041;-78
2023/12/16 12:13:37;;;;;;;6.82;4.85;;;11.60;99.90;;;;;;4837574;29;20043;-78
2023/12/16 12:16:04;;;;;;;10.13;5.82;;;11.60;99.90;;;;;;4836857;29;20384;-78
2023/12/16 12:18:30;;;;;;;9.60;5.28;;;11.60;99.90;;;;;;4838200;29;20641;-78
2023/12/16 12:20:56;;;;;;;8.70;4.75;;;11.60;99.90;;;;;;4840058;29;20045;-78
2023/12/16 12:23:21;;;;;;;8.55;5.35;;;11.60;99.90;;;;;;4836613;29;20220;-78
2023/12/16 12:25:55;;;;;;;7.30;5.28;;;11.60;99.90;;;;;;4841630;29;20090;-78
2023/12/16 12:28:21;;;;;;;9.30;5.72;;;11.60;99.90;;;;;;4849560;29;20037;-78
2023/12/16 12:30:46;;;;;;;7.75;4.80;;;11.50;99.90;;;;;;4840183;29;20044;-78
2023/12/16 12:33:12;;;;;;;6.82;4.57;;;11.60;99.90;;;;;;4847776;29;20483;-79
2023/12/16 12:35:38;;;;;;;6.97;4.13;;;11.50;99.90;;;;;;4846803;29;20136;-78
2023/12/16 12:38:03;;;;;;;6.80;4.70;;;11.50;99.90;;;;;;4843885;29;20045;-78
2023/12/16 12:40:29;;;;;;;6.00;3.97;;;11.50;99.90;;;;;;4851402;29;20034;-79
2023/12/16 12:42:57;;;;;;;6.47;4.75;;;11.50;99.90;;;;;;4849920;29;20037;-79